createdAt,value
2019-04-20T00:01:26.213Z,4.35
2019-04-20T00:03:51.949Z,4.20
2019-04-20T00:06:21.631Z,4.23
2019-04-20T00:08:58.741Z,3.80
2019-04-20T00:11:31.022Z,4.00
2019-04-20T00:14:02.019Z,4.10
2019-04-20T00:16:25.164Z,3.83
2019-04-20T00:18:58.333Z,4.00
2019-04-20T00:21:51.995Z,4.10
2019-04-20T00:24:21.577Z,3.80
2019-04-20T00:29:36.708Z,3.83
2019-04-20T00:32:00.556Z,4.30
2019-04-20T00:34:26.452Z,4.12
2019-04-20T00:36:49.819Z,3.53
2019-04-20T00:39:20.229Z,4.33
2019-04-20T00:41:57.132Z,3.50
2019-04-20T00:44:27.312Z,3.90
2019-04-20T00:47:04.484Z,4.17
2019-04-20T00:49:36.350Z,3.67
2019-04-20T00:52:18.679Z,3.63
2019-04-20T00:54:22.666Z,3.85
2019-04-20T00:56:52.049Z,3.90
2019-04-20T00:59:35.499Z,4.07
2019-04-20T01:02:12.616Z,4.17
2019-04-20T01:04:43.233Z,3.83
2019-04-20T01:07:17.590Z,3.90
2019-04-20T01:09:54.225Z,3.80
2019-04-20T01:12:26.773Z,3.72
2019-04-20T01:14:59.172Z,3.80
2019-04-20T01:17:24.468Z,3.95
2019-04-20T01:19:54.134Z,3.70
2019-04-20T01:22:25.438Z,4.40
2019-04-20T01:24:55.023Z,3.80
2019-04-20T01:27:41.197Z,4.78
2019-04-20T01:30:07.009Z,4.67
2019-04-20T01:32:36.064Z,4.83
2019-04-20T01:35:14.042Z,4.37
2019-04-20T01:37:40.627Z,4.70
2019-04-20T01:40:01.113Z,4.20
2019-04-20T01:42:30.047Z,3.93
2019-04-20T01:45:00.290Z,4.23
2019-04-20T01:47:38.721Z,4.17
2019-04-20T01:50:08.548Z,4.00
2019-04-20T01:52:49.356Z,3.90
2019-04-20T01:55:42.478Z,3.77
2019-04-20T01:58:15.803Z,3.90
2019-04-20T02:00:44.023Z,4.03
2019-04-20T02:03:36.969Z,3.80
2019-04-20T02:06:10.040Z,3.60
2019-04-20T02:08:34.301Z,3.80
2019-04-20T02:11:05.775Z,3.63
2019-04-20T02:13:42.146Z,4.10
2019-04-20T02:16:18.332Z,3.97
2019-04-20T02:18:44.207Z,3.80
2019-04-20T02:21:24.163Z,3.60
2019-04-20T02:23:47.431Z,3.87
2019-04-20T02:26:09.217Z,3.77
2019-04-20T02:29:05.942Z,3.40
2019-04-20T02:34:33.536Z,3.77
2019-04-20T02:37:13.959Z,3.80
2019-04-20T02:39:45.557Z,4.27
2019-04-20T02:44:48.086Z,3.92
2019-04-20T02:47:25.807Z,3.67
2019-04-20T02:49:52.385Z,3.67
2019-04-20T02:54:46.768Z,3.67
2019-04-20T02:57:18.678Z,3.67
2019-04-20T03:00:01.218Z,3.92
2019-04-20T03:02:06.050Z,3.33
2019-04-20T03:04:25.753Z,3.87
2019-04-20T03:07:05.203Z,3.90
2019-04-20T03:09:39.944Z,3.87
2019-04-20T03:12:23.635Z,3.67
2019-04-20T03:14:34.868Z,3.95
2019-04-20T03:17:15.339Z,3.87
2019-04-20T03:19:37.635Z,3.10
2019-04-20T03:22:13.816Z,3.40
2019-04-20T03:24:51.397Z,3.60
2019-04-20T03:27:10.828Z,3.80
2019-04-20T03:29:46.954Z,3.40
2019-04-20T03:37:27.537Z,4.03
2019-04-20T03:39:46.634Z,3.80
2019-04-20T03:42:01.044Z,3.30
2019-04-20T03:44:34.034Z,3.17
2019-04-20T03:47:06.858Z,3.57
2019-04-20T03:49:54.993Z,3.70
2019-04-20T03:52:26.164Z,3.33
2019-04-20T03:54:52.244Z,3.50
2019-04-20T03:57:38.301Z,3.47
2019-04-20T04:00:04.885Z,3.10
2019-04-20T04:02:55.480Z,3.20
2019-04-20T04:05:13.563Z,3.20
2019-04-20T04:07:36.497Z,3.50
2019-04-20T04:10:14.095Z,3.13
2019-04-20T04:13:05.154Z,3.03
2019-04-20T04:15:36.140Z,3.90
2019-04-20T04:18:13.856Z,3.03
2019-04-20T04:20:49.259Z,3.50
2019-04-20T04:23:22.038Z,3.52
2019-04-20T04:25:58.130Z,3.23
2019-04-20T04:28:28.689Z,3.95
2019-04-20T04:31:06.330Z,3.20
2019-04-20T04:35:59.264Z,3.60
2019-04-20T04:38:37.792Z,3.37
2019-04-20T04:43:34.246Z,3.00
2019-04-20T04:45:46.966Z,3.20
2019-04-20T04:48:22.363Z,3.80
2019-04-20T04:50:56.307Z,3.53
2019-04-20T04:53:30.005Z,3.57
2019-04-20T04:55:57.532Z,3.50
2019-04-20T04:58:21.478Z,3.52
2019-04-20T05:00:51.516Z,3.33
2019-04-20T05:03:41.288Z,3.60
2019-04-20T05:06:13.432Z,3.87
2019-04-20T05:08:36.066Z,3.65
2019-04-20T05:10:58.555Z,3.93
2019-04-20T05:13:37.008Z,3.70
2019-04-20T05:16:13.478Z,3.57
2019-04-20T05:18:53.123Z,3.40
2019-04-20T05:21:22.552Z,3.00
2019-04-20T05:23:44.429Z,3.20
2019-04-20T05:26:44.323Z,3.40
2019-04-20T05:29:03.237Z,3.20
2019-04-20T05:31:34.877Z,3.80
2019-04-20T05:34:20.609Z,3.23
2019-04-20T05:36:45.049Z,3.50
2019-04-20T05:39:22.513Z,3.20
2019-04-20T05:41:45.463Z,3.50
2019-04-20T05:44:12.385Z,3.27
2019-04-20T05:46:45.934Z,3.47
2019-04-20T05:49:23.605Z,3.47
2019-04-20T05:51:49.883Z,3.33
2019-04-20T05:54:26.942Z,3.67
2019-04-20T05:56:51.274Z,4.00
2019-04-20T05:59:21.862Z,3.87
2019-04-20T06:02:01.389Z,3.93
2019-04-20T06:04:42.640Z,3.80
2019-04-20T06:06:56.492Z,4.07
2019-04-20T06:09:29.565Z,4.07
2019-04-20T06:12:17.996Z,4.27
2019-04-20T06:14:20.564Z,3.40
2019-04-20T06:17:02.467Z,3.87
2019-04-20T06:19:35.491Z,3.55
2019-04-20T06:22:14.901Z,3.70
2019-04-20T06:24:52.791Z,4.22
2019-04-20T06:27:17.981Z,3.67
2019-04-20T06:29:45.755Z,4.00
2019-04-20T06:32:21.192Z,5.27
2019-04-20T06:34:41.621Z,4.83
2019-04-20T06:37:17.224Z,5.07
2019-04-20T06:39:54.683Z,4.87
2019-04-20T06:42:17.945Z,4.87
2019-04-20T06:44:50.498Z,4.78
2019-04-20T06:47:24.693Z,5.03
2019-04-20T06:49:50.399Z,4.70
2019-04-20T06:52:39.252Z,4.80
2019-04-20T06:55:06.950Z,4.03
2019-04-20T06:57:37.244Z,4.37
2019-04-20T07:02:44.427Z,4.42
2019-04-20T07:05:28.687Z,3.67
2019-04-20T07:07:47.464Z,4.10
2019-04-20T07:10:19.762Z,4.37
2019-04-20T07:12:42.517Z,3.92
2019-04-20T07:15:16.259Z,3.30
2019-04-20T07:17:57.042Z,3.50
2019-04-20T07:20:21.273Z,3.43
2019-04-20T07:23:02.296Z,3.97
2019-04-20T07:25:31.073Z,3.67
2019-04-20T07:27:59.367Z,3.80
2019-04-20T07:30:30.869Z,3.50
2019-04-20T07:33:04.503Z,4.00
2019-04-20T07:35:35.642Z,4.05
2019-04-20T07:40:35.482Z,3.77
2019-04-20T07:43:02.804Z,3.40
2019-04-20T07:45:35.082Z,3.58
2019-04-20T07:48:11.247Z,3.47
2019-04-20T07:50:31.684Z,4.03
2019-04-20T07:53:07.618Z,3.40
2019-04-20T07:55:54.113Z,3.90
2019-04-20T07:58:02.772Z,3.73
2019-04-20T08:00:48.498Z,4.20
2019-04-20T08:03:20.173Z,3.13
2019-04-20T08:05:40.551Z,3.63
2019-04-20T08:08:18.068Z,3.50
2019-04-20T08:10:48.193Z,3.70
2019-04-20T08:15:56.997Z,3.30
2019-04-20T08:18:29.321Z,3.40
2019-04-20T08:20:58.114Z,3.33
2019-04-20T08:23:23.611Z,2.87
2019-04-20T08:25:46.824Z,3.40
2019-04-20T08:28:20.861Z,3.27
2019-04-20T08:31:06.389Z,3.50
2019-04-20T08:33:55.506Z,3.20
2019-04-20T08:36:21.510Z,3.40
2019-04-20T08:41:13.670Z,3.23
2019-04-20T08:43:53.126Z,3.60
2019-04-20T08:46:21.992Z,3.25
2019-04-20T08:48:50.850Z,2.97
2019-04-20T08:51:19.387Z,3.37
2019-04-20T08:53:53.620Z,3.17
2019-04-20T08:56:17.306Z,3.15
2019-04-20T08:58:33.938Z,3.70
2019-04-20T09:01:08.372Z,3.57
2019-04-20T09:03:48.717Z,3.20
2019-04-20T09:06:19.404Z,3.62
2019-04-20T09:08:49.190Z,3.33
2019-04-20T09:11:26.058Z,3.50
2019-04-20T09:13:43.627Z,3.00
2019-04-20T09:16:10.960Z,3.72
2019-04-20T09:18:50.283Z,3.70
2019-04-20T09:21:25.344Z,3.02
2019-04-20T09:24:16.175Z,3.70
2019-04-20T09:26:37.127Z,3.05
2019-04-20T09:29:04.149Z,3.20
2019-04-20T09:31:40.822Z,3.27
2019-04-20T09:34:15.417Z,3.62
2019-04-20T09:36:46.174Z,2.93
2019-04-20T09:39:15.067Z,3.40
2019-04-20T09:41:59.001Z,3.37
2019-04-20T09:44:11.068Z,4.00
2019-04-20T09:46:46.023Z,2.83
2019-04-20T09:49:20.170Z,3.17
2019-04-20T09:51:58.554Z,3.40
2019-04-20T09:54:32.605Z,2.96
2019-04-20T09:57:07.626Z,3.35
2019-04-20T09:59:33.499Z,2.75
2019-04-20T10:01:50.434Z,3.17
2019-04-20T10:04:17.413Z,3.02
2019-04-20T10:06:47.637Z,2.72
2019-04-20T10:09:21.310Z,3.37
2019-04-20T10:11:48.746Z,2.65
2019-04-20T10:14:17.908Z,3.40
2019-04-20T10:16:47.412Z,3.37
2019-04-20T10:19:20.623Z,2.77
2019-04-20T10:21:46.929Z,3.02
2019-04-20T10:24:16.686Z,3.03
2019-04-20T10:26:46.045Z,2.37
2019-04-20T10:29:15.458Z,2.52
2019-04-20T10:31:51.482Z,2.62
2019-04-20T10:34:15.853Z,2.83
2019-04-20T10:36:47.804Z,3.08
2019-04-20T10:39:18.557Z,2.90
2019-04-20T10:41:52.578Z,2.90
2019-04-20T10:44:18.715Z,2.87
2019-04-20T10:46:49.041Z,2.83
2019-04-20T10:49:19.320Z,2.77
2019-04-20T10:51:49.451Z,2.50
2019-04-20T10:54:18.497Z,3.05
2019-04-20T10:56:47.806Z,2.58
2019-04-20T10:59:16.787Z,2.90
2019-04-20T11:01:45.824Z,2.80
2019-04-20T11:04:14.804Z,3.10
2019-04-20T11:06:44.816Z,2.72
2019-04-20T11:09:14.408Z,2.90
2019-04-20T11:11:44.167Z,2.67
2019-04-20T11:14:21.137Z,3.25
2019-04-20T11:16:44.492Z,2.50
2019-04-20T11:19:13.650Z,2.40
2019-04-20T11:21:42.542Z,3.20
2019-04-20T11:24:12.458Z,2.67
2019-04-20T11:26:42.305Z,2.35
2019-04-20T11:29:12.185Z,2.40
2019-04-20T11:31:46.764Z,2.25
2019-04-20T11:34:15.004Z,2.80
2019-04-20T11:36:43.380Z,2.08
2019-04-20T11:39:14.752Z,2.67
2019-04-20T11:41:43.812Z,2.50
2019-04-20T11:44:13.767Z,2.17
2019-04-20T11:46:43.041Z,2.30
2019-04-20T11:49:13.206Z,2.54
2019-04-20T11:51:43.450Z,2.47
2019-04-20T11:54:12.674Z,2.72
2019-04-20T11:56:45.168Z,3.17
2019-04-20T11:59:12.607Z,2.56
2019-04-20T12:01:51.081Z,3.00
2019-04-20T12:04:26.132Z,3.00
2019-04-20T12:06:46.673Z,3.55
2019-04-20T12:09:16.935Z,2.98
2019-04-20T12:11:59.658Z,3.70
2019-04-20T12:14:16.710Z,3.17
2019-04-20T12:16:45.920Z,3.40
2019-04-20T12:19:14.893Z,3.27
2019-04-20T12:21:43.887Z,2.90
2019-04-20T12:24:14.214Z,2.87
2019-04-20T12:26:43.318Z,3.20
2019-04-20T12:29:13.958Z,3.20
2019-04-20T12:31:44.289Z,2.95
2019-04-20T12:34:13.668Z,3.50
2019-04-20T12:36:42.851Z,2.90
2019-04-20T12:39:13.243Z,3.05
2019-04-20T12:41:49.800Z,2.90
2019-04-20T12:44:14.081Z,3.05
2019-04-20T12:46:43.737Z,2.90
2019-04-20T12:49:13.664Z,3.10
2019-04-20T12:51:50.598Z,2.80
2019-04-20T12:54:14.515Z,2.67
2019-04-20T12:56:44.681Z,3.10
2019-04-20T12:59:13.832Z,3.17
2019-04-20T13:01:43.720Z,3.02
2019-04-20T13:04:14.310Z,2.84
2019-04-20T13:06:44.681Z,2.92
2019-04-20T13:09:14.587Z,3.30
2019-04-20T13:11:52.983Z,2.50
2019-04-20T13:14:46.719Z,2.87
2019-04-20T13:17:16.642Z,2.40
2019-04-20T13:19:47.049Z,2.40
2019-04-20T13:22:17.033Z,2.57
2019-04-20T13:24:47.287Z,2.50
2019-04-20T13:27:16.761Z,2.47
2019-04-20T13:29:47.905Z,2.37
2019-04-20T13:32:16.436Z,2.20
2019-04-20T13:34:46.863Z,2.75
2019-04-20T13:37:16.032Z,2.17
2019-04-20T13:39:45.056Z,2.52
2019-04-20T13:42:22.411Z,2.60
2019-04-20T13:44:45.250Z,2.50
2019-04-20T13:47:14.898Z,2.45
2019-04-20T13:49:45.204Z,2.40
2019-04-20T13:52:15.021Z,2.33
2019-04-20T13:54:45.189Z,2.27
2019-04-20T13:57:24.879Z,2.03
2019-04-20T13:59:57.738Z,2.30
2019-04-20T14:02:31.262Z,2.33
2019-04-20T14:05:02.735Z,2.20
2019-04-20T14:07:33.467Z,2.17
2019-04-20T14:10:03.623Z,2.45
2019-04-20T14:12:37.595Z,2.17
2019-04-20T14:15:05.083Z,2.22
2019-04-20T14:17:35.071Z,2.05
2019-04-20T14:20:11.633Z,1.90
2019-04-20T14:22:36.866Z,1.95
2019-04-20T14:25:07.042Z,2.10
2019-04-20T14:27:37.123Z,2.17
2019-04-20T14:30:07.040Z,2.30
2019-04-20T14:32:36.818Z,2.12
2019-04-20T14:35:07.222Z,2.33
2019-04-20T14:37:36.149Z,2.10
2019-04-20T14:40:08.189Z,2.30
2019-04-20T14:42:44.742Z,2.75
2019-04-20T14:45:09.061Z,2.25
2019-04-20T14:47:39.657Z,2.20
2019-04-20T14:50:11.693Z,2.40
2019-04-20T14:52:43.755Z,2.42
2019-04-20T14:55:16.924Z,2.34
2019-04-20T14:57:45.657Z,2.08
2019-04-20T15:00:21.587Z,2.00
2019-04-20T15:02:50.552Z,2.40
2019-04-20T15:05:21.152Z,2.10
2019-04-20T15:07:51.612Z,2.37
2019-04-20T15:10:20.639Z,2.62
2019-04-20T15:12:55.758Z,2.40
2019-04-20T15:15:20.736Z,1.92
2019-04-20T15:17:51.479Z,2.33
2019-04-20T15:20:21.817Z,2.30
2019-04-20T15:22:51.730Z,2.10
2019-04-20T15:25:21.280Z,2.07
2019-04-20T15:27:50.323Z,2.37
2019-04-20T15:30:20.497Z,2.20
2019-04-20T15:32:49.430Z,2.30
2019-04-20T15:35:19.690Z,2.20
2019-04-20T15:37:49.211Z,2.00
2019-04-20T15:40:19.310Z,2.12
2019-04-20T15:42:58.035Z,2.12
2019-04-20T15:45:19.145Z,2.12
2019-04-20T15:47:48.059Z,2.12
2019-04-20T15:50:18.066Z,2.20
2019-04-20T15:52:52.210Z,1.80
2019-04-20T15:55:24.877Z,1.73
2019-04-20T15:57:48.381Z,2.20
2019-04-20T16:00:18.398Z,2.20
2019-04-20T16:02:49.506Z,1.90
2019-04-20T16:05:20.068Z,1.70
2019-04-20T16:07:54.921Z,2.25
2019-04-20T16:10:21.157Z,2.13
2019-04-20T16:13:02.034Z,2.40
2019-04-20T16:15:22.020Z,2.17
2019-04-20T16:17:53.100Z,2.12
2019-04-20T16:20:23.528Z,2.20
2019-04-20T16:22:52.328Z,2.15
2019-04-20T16:25:23.494Z,2.15
2019-04-20T16:27:53.770Z,2.10
2019-04-20T16:30:23.356Z,2.37
2019-04-20T16:32:52.567Z,2.15
2019-04-20T16:35:22.581Z,2.33
2019-04-20T16:37:52.695Z,2.10
2019-04-20T16:40:23.309Z,1.90
2019-04-20T16:42:52.379Z,2.12
2019-04-20T16:45:21.417Z,2.10
2019-04-20T16:47:50.273Z,2.12
2019-04-20T16:50:19.450Z,1.77
2019-04-20T16:52:48.815Z,2.17
2019-04-20T16:55:18.831Z,1.65
2019-04-20T16:57:49.642Z,2.00
2019-04-20T17:00:19.859Z,2.30
2019-04-20T17:02:50.117Z,1.87
2019-04-20T17:05:19.158Z,2.10
2019-04-20T17:07:50.880Z,2.00
2019-04-20T17:10:23.505Z,2.07
2019-04-20T17:12:53.694Z,2.20
2019-04-20T17:15:23.688Z,2.03
2019-04-20T17:17:53.795Z,2.40
2019-04-20T17:20:25.241Z,1.95
2019-04-20T17:22:54.334Z,2.58
2019-04-20T17:25:23.931Z,2.25
2019-04-20T17:28:07.287Z,2.00
2019-04-20T17:30:47.819Z,2.40
2019-04-20T17:33:21.299Z,2.50
2019-04-20T17:35:57.271Z,2.10
2019-04-20T17:38:20.670Z,2.22
2019-04-20T17:41:02.999Z,2.20
2019-04-20T17:43:29.138Z,2.30
2019-04-20T17:46:02.217Z,2.22
2019-04-20T17:48:33.798Z,2.60
2019-04-20T17:51:13.978Z,2.42
2019-04-20T17:53:49.061Z,2.80
2019-04-20T17:56:12.453Z,2.40
2019-04-20T17:58:41.529Z,2.50
2019-04-20T18:01:41.233Z,3.10
2019-04-20T18:04:36.650Z,2.27
2019-04-20T18:06:52.597Z,2.35
2019-04-20T18:09:34.924Z,2.50
2019-04-20T18:11:46.759Z,2.00
2019-04-20T18:14:28.514Z,2.70
2019-04-20T18:17:05.945Z,2.47
2019-04-20T18:19:34.765Z,2.58
2019-04-20T18:22:05.853Z,2.47
2019-04-20T18:24:55.827Z,2.37
2019-04-20T18:27:27.878Z,2.45
2019-04-20T18:29:53.396Z,2.20
2019-04-20T18:32:19.712Z,2.44
2019-04-20T18:35:03.525Z,2.25
2019-04-20T18:37:31.029Z,2.30
2019-04-20T18:40:06.230Z,2.20
2019-04-20T18:42:37.194Z,2.33
2019-04-20T18:45:21.938Z,2.62
2019-04-20T18:47:48.982Z,2.40
2019-04-20T18:50:11.346Z,2.72
2019-04-20T18:52:35.682Z,2.15
2019-04-20T18:55:13.785Z,2.50
2019-04-20T18:57:38.327Z,2.42
2019-04-20T19:00:18.008Z,2.20
2019-04-20T19:02:46.834Z,2.37
2019-04-20T19:05:13.637Z,2.20
2019-04-20T19:07:52.789Z,2.20
2019-04-20T19:10:22.983Z,1.90
2019-04-20T19:12:54.330Z,2.02
2019-04-20T19:15:55.203Z,2.17
2019-04-20T19:18:23.826Z,2.42
2019-04-20T19:20:43.210Z,1.98
2019-04-20T19:23:12.349Z,2.46
2019-04-20T19:25:42.476Z,2.30
2019-04-20T19:28:14.486Z,1.92
2019-04-20T19:30:50.258Z,2.02
2019-04-20T19:33:30.055Z,2.50
2019-04-20T19:35:53.097Z,2.35
2019-04-20T19:38:20.893Z,2.30
2019-04-20T19:40:56.536Z,1.98
2019-04-20T19:43:26.637Z,2.10
2019-04-20T19:46:31.202Z,2.15
2019-04-20T19:48:36.250Z,2.42
2019-04-20T19:51:10.179Z,2.80
2019-04-20T19:53:36.659Z,2.47
2019-04-20T19:56:04.044Z,2.70
2019-04-20T19:58:35.941Z,2.30
2019-04-20T20:00:56.308Z,2.15
2019-04-20T20:03:25.930Z,2.40
2019-04-20T20:05:57.504Z,2.47
2019-04-20T20:08:29.494Z,2.50
2019-04-20T20:10:59.187Z,2.00
2019-04-20T20:13:34.508Z,2.37
2019-04-20T20:16:07.015Z,2.50
2019-04-20T20:18:41.110Z,2.10
2019-04-20T20:21:13.847Z,2.47
2019-04-20T20:23:29.976Z,2.20
2019-04-20T20:26:01.936Z,2.90
2019-04-20T20:28:37.039Z,2.37
2019-04-20T20:31:08.661Z,2.10
2019-04-20T20:33:43.915Z,2.30
2019-04-20T20:36:06.605Z,1.90
2019-04-20T20:38:37.749Z,2.15
2019-04-20T20:41:12.655Z,2.25
2019-04-20T20:43:47.431Z,1.92
2019-04-20T20:46:18.557Z,2.07
2019-04-20T20:48:57.480Z,2.08
2019-04-20T20:51:22.905Z,1.57
2019-04-20T20:53:49.859Z,1.77
2019-04-20T20:56:14.998Z,2.00
2019-04-20T20:58:48.597Z,1.95
2019-04-20T21:01:12.926Z,1.80
2019-04-20T21:03:42.558Z,1.80
2019-04-20T21:06:09.777Z,2.00
2019-04-20T21:08:45.927Z,1.57
2019-04-20T21:11:13.201Z,1.90
2019-04-20T21:13:46.489Z,1.75
2019-04-20T21:16:17.284Z,1.90
2019-04-20T21:18:55.260Z,1.17
2019-04-20T21:21:31.468Z,1.60
2019-04-20T21:23:53.205Z,1.70
2019-04-20T21:26:21.653Z,1.90
2019-04-20T21:28:44.177Z,1.80
2019-04-20T21:31:18.829Z,1.66
2019-04-20T21:33:44.863Z,1.45
2019-04-20T21:36:19.085Z,1.60
2019-04-20T21:38:45.156Z,1.80
2019-04-20T21:41:19.814Z,1.62
2019-04-20T21:43:48.113Z,1.70
2019-04-20T21:46:18.640Z,1.73
2019-04-20T21:49:00.749Z,1.72
2019-04-20T21:51:30.387Z,1.60
2019-04-20T21:53:48.939Z,2.10
2019-04-20T21:56:17.848Z,1.80
2019-04-20T21:58:50.526Z,1.63
2019-04-20T22:01:28.595Z,1.80
2019-04-20T22:03:50.260Z,1.57
2019-04-20T22:06:20.280Z,1.50
2019-04-20T22:08:54.538Z,1.92
2019-04-20T22:11:20.014Z,1.82
2019-04-20T22:13:50.899Z,1.90
2019-04-20T22:16:20.802Z,1.77
2019-04-20T22:18:58.279Z,1.92
2019-04-20T22:21:26.549Z,1.72
2019-04-20T22:24:04.186Z,1.90
2019-04-20T22:26:30.735Z,1.63
2019-04-20T22:28:54.178Z,1.77
2019-04-20T22:31:24.404Z,1.87
2019-04-20T22:33:54.391Z,2.03
2019-04-20T22:36:24.787Z,1.83
2019-04-20T22:39:13.735Z,1.83
2019-04-20T22:41:52.435Z,1.45
2019-04-20T22:44:21.045Z,1.80
2019-04-20T22:46:50.084Z,1.83
2019-04-20T22:49:35.924Z,2.00
2019-04-20T22:51:58.126Z,1.80
2019-04-20T22:54:37.287Z,1.47
2019-04-20T22:57:01.675Z,2.00
2019-04-20T22:59:30.362Z,1.50
2019-04-20T23:01:58.210Z,1.47
2019-04-20T23:04:24.730Z,1.70
2019-04-20T23:06:55.546Z,1.43
2019-04-20T23:09:26.810Z,1.67
2019-04-20T23:12:03.790Z,1.63
2019-04-20T23:14:26.606Z,1.30
2019-04-20T23:16:57.466Z,1.40
2019-04-20T23:19:35.623Z,1.60
2019-04-20T23:22:01.258Z,1.10
2019-04-20T23:24:29.055Z,1.42
2019-04-20T23:26:59.490Z,1.40
2019-04-20T23:29:32.714Z,1.50
2019-04-20T23:32:04.199Z,1.53
2019-04-20T23:34:32.285Z,1.20
2019-04-20T23:37:00.930Z,1.20
2019-04-20T23:39:35.357Z,2.90
2019-04-20T23:42:08.430Z,3.12
2019-04-20T23:44:56.023Z,1.30
2019-04-20T23:47:25.396Z,1.20
2019-04-20T23:50:12.398Z,1.10
2019-04-20T23:52:49.148Z,1.17
2019-04-20T23:55:03.011Z,1.30
2019-04-20T23:57:27.694Z,1.27
2019-04-20T23:59:56.585Z,1.17
